createdAt,value
2022-12-23T00:00:26.540Z,35.47
2022-12-23T00:02:53.162Z,33.50
2022-12-23T00:05:19.751Z,33.25
2022-12-23T00:07:46.207Z,36.95
2022-12-23T00:10:12.810Z,28.10
2022-12-23T00:12:58.052Z,28.85
2022-12-23T00:15:24.613Z,37.78
2022-12-23T00:17:51.092Z,33.58
2022-12-23T00:20:17.686Z,34.97
2022-12-23T00:23:02.777Z,35.08
2022-12-23T00:25:41.350Z,28.67
2022-12-23T00:28:11.376Z,32.58
2022-12-23T00:30:38.774Z,34.20
2022-12-23T00:33:05.462Z,36.10
2022-12-23T00:35:32.334Z,36.30
2022-12-23T00:37:58.867Z,35.28
2022-12-23T00:40:43.747Z,33.28
2022-12-23T00:43:30.428Z,34.65
2022-12-23T00:45:56.963Z,38.53
2022-12-23T00:48:42.347Z,33.40
2022-12-23T00:51:08.826Z,32.28
2022-12-23T00:53:35.312Z,33.40
2022-12-23T00:56:01.727Z,27.00
2022-12-23T00:58:28.187Z,39.92
2022-12-23T01:01:18.971Z,30.60
2022-12-23T01:07:05.717Z,31.25
2022-12-23T01:09:32.208Z,35.22
2022-12-23T01:11:58.896Z,34.08
2022-12-23T01:14:25.365Z,33.45
2022-12-23T01:16:51.936Z,39.70
2022-12-23T01:19:18.425Z,40.75
2022-12-23T01:21:44.909Z,42.83
2022-12-23T01:24:11.416Z,43.53
2022-12-23T01:26:37.979Z,43.53
2022-12-23T01:29:04.571Z,39.25
2022-12-23T01:31:31.156Z,42.58
2022-12-23T01:33:57.658Z,41.90
2022-12-23T01:36:24.338Z,45.08
2022-12-23T01:38:50.963Z,46.75
2022-12-23T01:41:38.646Z,48.42
2022-12-23T01:44:23.829Z,47.33
2022-12-23T01:46:50.336Z,43.88
2022-12-23T01:49:16.765Z,40.15
2022-12-23T01:51:43.492Z,42.15
2022-12-23T01:54:09.905Z,43.15
2022-12-23T01:56:38.091Z,43.67
2022-12-23T01:59:42.139Z,43.47
2022-12-23T02:02:30.022Z,48.05
2022-12-23T02:04:57.204Z,51.83
2022-12-23T02:08:14.562Z,45.60
2022-12-23T02:10:59.984Z,44.92
2022-12-23T02:13:34.918Z,48.10
2022-12-23T02:16:17.229Z,48.08
2022-12-23T02:19:03.930Z,44.15
2022-12-23T02:21:42.744Z,39.47
2022-12-23T02:24:28.079Z,43.90
2022-12-23T02:27:33.066Z,43.05
2022-12-23T02:29:59.485Z,41.45
2022-12-23T02:32:46.209Z,40.70
2022-12-23T02:35:16.601Z,36.70
2022-12-23T02:37:47.601Z,41.85
2022-12-23T02:40:14.054Z,39.22
2022-12-23T02:42:45.207Z,41.58
2022-12-23T02:45:14.518Z,44.50
2022-12-23T02:47:44.888Z,36.10
2022-12-23T02:50:14.934Z,41.05
2022-12-23T02:52:42.033Z,38.47
2022-12-23T02:55:17.588Z,42.38
2022-12-23T02:57:46.275Z,38.63
2022-12-23T03:00:13.043Z,37.75
2022-12-23T03:02:40.572Z,36.90
2022-12-23T03:05:23.349Z,31.60
2022-12-23T03:07:50.468Z,33.90
2022-12-23T03:10:26.151Z,38.35
2022-12-23T03:13:01.858Z,38.17
2022-12-23T03:15:37.476Z,36.50
2022-12-23T03:18:04.139Z,38.47
2022-12-23T03:20:38.762Z,46.05
2022-12-23T03:23:14.257Z,41.67
2022-12-23T03:25:43.769Z,41.50
2022-12-23T03:31:46.641Z,34.40
2022-12-23T03:37:32.605Z,41.97
2022-12-23T03:40:02.540Z,37.28
2022-12-23T03:42:30.739Z,41.97
2022-12-23T03:45:45.316Z,41.13
2022-12-23T03:50:39.930Z,37.95
2022-12-23T03:53:12.866Z,40.63
2022-12-23T03:55:43.148Z,38.42
2022-12-23T03:58:21.791Z,39.70
2022-12-23T04:00:51.421Z,46.63
2022-12-23T04:03:22.329Z,40.70
2022-12-23T04:05:55.251Z,49.97
2022-12-23T04:08:35.870Z,48.70
2022-12-23T04:11:02.788Z,44.72
2022-12-23T04:13:29.734Z,38.92
2022-12-23T04:15:59.924Z,45.55
2022-12-23T04:18:26.379Z,45.17
2022-12-23T04:20:52.756Z,43.92
2022-12-23T04:23:19.189Z,42.08
2022-12-23T04:25:45.782Z,48.08
2022-12-23T04:28:12.240Z,48.00
2022-12-23T04:30:38.870Z,42.88
2022-12-23T04:33:05.309Z,50.55
2022-12-23T04:35:31.790Z,42.00
2022-12-23T04:37:58.320Z,46.72
2022-12-23T04:40:24.764Z,49.70
2022-12-23T04:42:52.543Z,55.80
2022-12-23T04:45:19.096Z,56.38
2022-12-23T04:47:45.661Z,48.00
2022-12-23T04:50:15.809Z,54.28
2022-12-23T04:52:42.748Z,49.08
2022-12-23T04:55:09.539Z,52.78
2022-12-23T04:57:35.971Z,46.85
2022-12-23T05:00:02.503Z,48.65
2022-12-23T05:02:29.092Z,45.53
2022-12-23T05:04:55.650Z,51.47
2022-12-23T05:07:22.112Z,42.00
2022-12-23T05:09:48.548Z,46.53
2022-12-23T05:12:14.998Z,51.47
2022-12-23T05:14:41.480Z,50.70
2022-12-23T05:17:08.222Z,49.83
2022-12-23T05:19:34.824Z,53.05
2022-12-23T05:22:01.299Z,49.55
2022-12-23T05:24:27.771Z,46.10
2022-12-23T05:26:59.727Z,47.35
2022-12-23T05:29:26.725Z,51.53
2022-12-23T05:31:53.240Z,56.42
2022-12-23T05:34:19.852Z,52.05
2022-12-23T05:36:46.391Z,52.72
2022-12-23T05:39:12.853Z,49.90
2022-12-23T05:41:39.391Z,62.08
2022-12-23T05:44:05.841Z,67.30
2022-12-23T05:46:32.335Z,61.17
2022-12-23T05:48:58.889Z,56.05
2022-12-23T05:51:25.348Z,58.03
2022-12-23T05:53:51.856Z,54.08
2022-12-23T05:56:18.358Z,53.90
2022-12-23T05:58:44.814Z,68.53
2022-12-23T06:01:11.282Z,57.78
2022-12-23T06:03:37.991Z,69.70
2022-12-23T06:06:04.880Z,63.28
2022-12-23T06:08:31.389Z,59.88
2022-12-23T06:10:59.921Z,57.90
2022-12-23T06:13:26.441Z,62.92
2022-12-23T06:15:52.886Z,56.65
2022-12-23T06:18:19.302Z,61.60
2022-12-23T06:20:46.969Z,56.08
2022-12-23T06:23:13.601Z,60.30
2022-12-23T06:25:40.068Z,57.00
2022-12-23T06:28:07.970Z,49.55
2022-12-23T06:30:34.547Z,47.30
2022-12-23T06:33:00.978Z,45.38
2022-12-23T06:35:27.501Z,53.15
2022-12-23T06:37:53.912Z,49.50
2022-12-23T06:40:20.421Z,37.50
2022-12-23T06:42:47.413Z,37.15
2022-12-23T06:45:14.057Z,45.50
2022-12-23T06:47:40.657Z,36.80
2022-12-23T06:50:07.372Z,41.05
2022-12-23T06:52:33.827Z,41.38
2022-12-23T06:55:00.280Z,40.55
2022-12-23T06:57:26.792Z,35.45
2022-12-23T06:59:53.230Z,40.38
2022-12-23T07:02:19.857Z,36.42
2022-12-23T07:04:46.556Z,34.58
2022-12-23T07:07:13.323Z,31.83
2022-12-23T07:10:12.325Z,35.22
2022-12-23T07:12:39.017Z,32.63
2022-12-23T07:15:06.128Z,34.78
2022-12-23T07:17:32.670Z,33.58
2022-12-23T07:19:59.197Z,34.35
2022-12-23T07:22:25.680Z,27.40
2022-12-23T07:24:52.140Z,29.77
2022-12-23T07:27:18.710Z,29.60
2022-12-23T07:29:45.213Z,30.77
2022-12-23T07:32:11.736Z,30.83
2022-12-23T07:34:38.229Z,35.38
2022-12-23T07:37:04.683Z,31.30
2022-12-23T07:39:31.195Z,30.60
2022-12-23T07:42:25.467Z,34.00
2022-12-23T07:44:44.175Z,30.05
2022-12-23T07:47:10.634Z,30.13
2022-12-23T07:49:37.042Z,26.85
2022-12-23T07:52:03.624Z,25.63
2022-12-23T07:54:30.086Z,33.00
2022-12-23T07:56:58.209Z,27.08
2022-12-23T07:59:27.746Z,22.98
2022-12-23T08:01:54.258Z,23.98
2022-12-23T08:04:21.004Z,27.17
2022-12-23T08:06:47.621Z,23.80
2022-12-23T08:09:14.231Z,24.83
2022-12-23T08:11:40.648Z,22.02
2022-12-23T08:14:07.664Z,31.40
2022-12-23T08:16:39.525Z,27.73
2022-12-23T08:19:09.838Z,24.30
2022-12-23T08:21:36.272Z,28.10
2022-12-23T08:24:02.866Z,31.63
2022-12-23T08:26:29.289Z,26.02
2022-12-23T08:28:56.027Z,30.85
2022-12-23T08:31:23.818Z,30.90
2022-12-23T08:33:52.051Z,21.00
2022-12-23T08:36:23.103Z,23.83
2022-12-23T08:38:50.535Z,25.95
2022-12-23T08:41:19.579Z,27.88
2022-12-23T08:43:46.004Z,29.00
2022-12-23T08:46:12.672Z,21.48
2022-12-23T08:48:43.694Z,24.52
2022-12-23T08:51:14.566Z,24.10
2022-12-23T08:53:41.223Z,24.95
2022-12-23T08:56:09.037Z,19.40
2022-12-23T08:58:39.448Z,21.45
2022-12-23T09:01:07.122Z,31.67
2022-12-23T09:03:34.072Z,24.63
2022-12-23T09:06:04.165Z,25.90
2022-12-23T09:08:30.699Z,24.27
2022-12-23T09:10:57.215Z,26.73
2022-12-23T09:13:34.805Z,26.50
2022-12-23T09:16:02.203Z,23.17
2022-12-23T09:18:31.998Z,24.13
2022-12-23T09:21:02.318Z,21.88
2022-12-23T09:23:29.912Z,22.55
2022-12-23T09:25:56.468Z,18.90
2022-12-23T09:28:23.609Z,21.70
2022-12-23T09:30:50.107Z,26.58
2022-12-23T09:33:17.250Z,22.35
2022-12-23T09:35:46.884Z,34.60
2022-12-23T09:38:13.724Z,23.73
2022-12-23T09:40:40.999Z,28.10
2022-12-23T09:43:26.224Z,25.15
2022-12-23T09:46:01.893Z,24.33
2022-12-23T09:48:30.855Z,24.40
2022-12-23T09:51:01.600Z,27.95
2022-12-23T09:53:45.087Z,23.30
2022-12-23T09:56:28.232Z,28.40
2022-12-23T09:59:11.278Z,22.02
2022-12-23T10:01:52.775Z,25.77
2022-12-23T10:04:44.908Z,22.60
2022-12-23T10:07:21.404Z,28.10
2022-12-23T10:09:53.014Z,24.40
2022-12-23T10:12:39.720Z,25.10
2022-12-23T10:15:19.472Z,26.70
2022-12-23T10:17:49.379Z,24.83
2022-12-23T10:20:23.724Z,23.15
2022-12-23T10:22:53.654Z,21.23
2022-12-23T10:25:29.478Z,27.08
2022-12-23T10:27:55.867Z,20.48
2022-12-23T10:33:29.545Z,20.33
2022-12-23T10:36:35.819Z,19.90
2022-12-23T10:39:08.081Z,21.92
2022-12-23T10:41:40.655Z,29.35
2022-12-23T10:44:21.324Z,26.15
2022-12-23T10:46:47.825Z,26.55
2022-12-23T10:49:53.296Z,37.20
2022-12-23T10:52:36.517Z,25.80
2022-12-23T10:55:02.953Z,24.42
2022-12-23T10:57:37.138Z,20.88
2022-12-23T11:01:09.915Z,18.48
2022-12-23T11:04:11.251Z,18.42
2022-12-23T11:06:40.572Z,16.65
2022-12-23T11:09:18.188Z,19.60
2022-12-23T11:12:01.280Z,20.83
2022-12-23T11:14:54.314Z,21.13
2022-12-23T11:17:30.092Z,22.90
2022-12-23T11:21:09.187Z,24.77
2022-12-23T11:23:26.896Z,18.40
2022-12-23T11:28:24.535Z,24.48
2022-12-23T11:30:55.975Z,23.55
2022-12-23T11:33:36.794Z,17.20
2022-12-23T11:36:12.457Z,27.33
2022-12-23T11:38:47.842Z,31.83
2022-12-23T11:41:20.875Z,23.10
2022-12-23T11:44:17.000Z,23.88
2022-12-23T11:47:21.396Z,24.90
2022-12-23T11:49:55.358Z,22.27
2022-12-23T11:52:23.249Z,32.55
2022-12-23T11:54:54.746Z,28.00
2022-12-23T11:57:33.006Z,44.97
2022-12-23T12:00:01.958Z,29.00
2022-12-23T12:02:51.611Z,80.40
2022-12-23T12:05:23.165Z,22.65
2022-12-23T12:07:50.533Z,24.88
2022-12-23T12:10:27.925Z,52.45
2022-12-23T12:12:59.730Z,40.30
2022-12-23T12:15:34.009Z,38.25
2022-12-23T12:18:06.601Z,48.55
2022-12-23T12:20:45.442Z,28.67
2022-12-23T12:23:18.663Z,24.85
2022-12-23T12:25:49.057Z,15.60
2022-12-23T12:28:26.285Z,21.67
2022-12-23T12:30:56.765Z,22.23
2022-12-23T12:33:42.010Z,22.60
2022-12-23T12:36:16.253Z,24.55
2022-12-23T12:38:45.662Z,36.53
2022-12-23T12:41:31.061Z,36.28
2022-12-23T12:44:01.894Z,54.55
2022-12-23T12:46:38.541Z,11.35
2022-12-23T12:49:18.710Z,13.80
2022-12-23T12:51:59.126Z,12.07
2022-12-23T12:54:29.927Z,10.60
2022-12-23T12:56:57.216Z,9.40
2022-12-23T12:59:28.288Z,9.82
2022-12-23T13:02:08.879Z,42.80
2022-12-23T13:04:58.621Z,12.32
2022-12-23T13:07:37.623Z,22.40
2022-12-23T13:10:24.625Z,24.50
2022-12-23T13:13:00.968Z,78.20
2022-12-23T13:15:34.260Z,12.70
2022-12-23T13:18:10.229Z,31.67
2022-12-23T13:20:39.865Z,11.95
2022-12-23T13:23:42.305Z,10.95
2022-12-23T13:26:17.788Z,15.63
2022-12-23T13:28:44.715Z,8.43
2022-12-23T13:31:19.193Z,9.20
2022-12-23T13:34:01.465Z,11.98
2022-12-23T13:36:34.077Z,15.90
2022-12-23T13:39:08.389Z,9.93
2022-12-23T13:41:35.086Z,8.55
2022-12-23T13:44:08.467Z,20.80
2022-12-23T13:46:54.306Z,10.13
2022-12-23T13:49:24.205Z,12.38
2022-12-23T13:52:00.779Z,12.50
2022-12-23T13:54:57.397Z,9.65
2022-12-23T13:57:39.438Z,9.02
2022-12-23T14:00:18.479Z,9.82
2022-12-23T14:03:00.970Z,9.85
2022-12-23T14:05:31.185Z,10.00
2022-12-23T14:08:02.719Z,8.43
2022-12-23T14:10:30.287Z,8.45
2022-12-23T14:13:02.087Z,7.93
2022-12-23T14:15:32.026Z,9.27
2022-12-23T14:18:17.589Z,7.45
2022-12-23T14:20:47.185Z,6.15
2022-12-23T14:23:17.692Z,6.32
2022-12-23T14:25:56.415Z,8.27
2022-12-23T14:28:25.866Z,6.75
2022-12-23T14:30:52.431Z,5.05
2022-12-23T14:33:19.046Z,8.18
2022-12-23T14:35:49.099Z,9.05
2022-12-23T14:38:15.536Z,5.10
2022-12-23T14:40:42.045Z,5.88
2022-12-23T14:43:26.828Z,7.70
2022-12-23T14:45:54.139Z,6.70
2022-12-23T14:48:35.967Z,5.70
2022-12-23T14:51:20.972Z,6.20
2022-12-23T14:53:57.037Z,8.05
2022-12-23T14:56:23.682Z,5.65
2022-12-23T14:59:10.494Z,7.10
2022-12-23T15:01:39.670Z,5.28
2022-12-23T15:04:11.444Z,6.57
2022-12-23T15:06:39.546Z,5.30
2022-12-23T15:09:09.995Z,3.95
2022-12-23T15:11:37.148Z,4.85
2022-12-23T15:14:10.635Z,5.85
2022-12-23T15:19:28.145Z,3.78
2022-12-23T15:22:22.272Z,4.82
2022-12-23T15:24:55.072Z,4.70
2022-12-23T15:27:28.329Z,8.20
2022-12-23T15:29:56.151Z,7.28
2022-12-23T15:32:23.832Z,7.32
2022-12-23T15:34:57.400Z,5.50
2022-12-23T15:40:02.026Z,9.73
2022-12-23T15:42:36.817Z,6.47
2022-12-23T15:45:54.507Z,9.40
2022-12-23T15:48:25.315Z,12.57
2022-12-23T15:50:53.485Z,9.73
2022-12-23T15:53:20.622Z,9.95
2022-12-23T15:55:48.708Z,11.55
2022-12-23T15:58:20.363Z,10.35
2022-12-23T16:01:02.542Z,18.45
2022-12-23T16:03:34.147Z,16.38
2022-12-23T16:06:19.624Z,13.20
2022-12-23T16:08:55.761Z,21.70
2022-12-23T16:11:22.970Z,22.05
2022-12-23T16:13:58.674Z,23.42
2022-12-23T16:16:33.452Z,21.88
2022-12-23T16:19:05.654Z,25.52
2022-12-23T16:21:36.544Z,33.85
2022-12-23T16:24:10.359Z,27.05
2022-12-23T16:26:50.569Z,28.67
2022-12-23T16:29:23.695Z,30.15
2022-12-23T16:31:54.450Z,25.05
2022-12-23T16:34:25.717Z,31.65
2022-12-23T16:36:52.256Z,24.88
2022-12-23T16:39:23.385Z,38.88
2022-12-23T16:41:50.104Z,27.45
2022-12-23T16:44:16.779Z,40.88
2022-12-23T16:46:44.407Z,37.00
2022-12-23T16:49:20.672Z,37.67
2022-12-23T16:51:47.251Z,33.97
2022-12-23T16:54:25.635Z,39.70
2022-12-23T16:56:52.230Z,34.38
2022-12-23T16:59:21.807Z,30.98
2022-12-23T17:01:53.659Z,32.58
2022-12-23T17:04:28.084Z,41.40
2022-12-23T17:06:57.692Z,33.33
2022-12-23T17:09:24.385Z,30.67
2022-12-23T17:11:54.258Z,41.53
2022-12-23T17:14:26.052Z,31.00
2022-12-23T17:16:52.865Z,43.67
2022-12-23T17:19:27.669Z,40.15
2022-12-23T17:22:01.484Z,38.47
2022-12-23T17:24:28.340Z,42.45
2022-12-23T17:26:56.825Z,30.45
2022-12-23T17:29:23.561Z,37.63
2022-12-23T17:31:52.877Z,39.67
2022-12-23T17:34:20.926Z,38.63
2022-12-23T17:36:56.677Z,32.17
2022-12-23T17:39:26.088Z,36.75
2022-12-23T17:41:52.613Z,45.70
2022-12-23T17:44:19.381Z,42.53
2022-12-23T17:46:46.590Z,39.70
2022-12-23T17:49:13.162Z,39.33
2022-12-23T17:51:40.053Z,42.70
2022-12-23T17:54:06.688Z,41.22
2022-12-23T17:56:33.185Z,43.30
2022-12-23T17:58:59.707Z,39.15
2022-12-23T18:01:27.621Z,44.35
2022-12-23T18:03:55.046Z,38.85
2022-12-23T18:06:22.079Z,44.47
2022-12-23T18:08:48.554Z,46.20
2022-12-23T18:11:18.947Z,40.10
2022-12-23T18:13:45.560Z,39.95
2022-12-23T18:16:12.858Z,40.47
2022-12-23T18:18:46.175Z,44.08
2022-12-23T18:21:39.580Z,35.83
2022-12-23T18:24:06.438Z,44.67
2022-12-23T18:26:32.948Z,35.28
2022-12-23T18:28:59.500Z,30.77
2022-12-23T18:31:27.362Z,34.67
2022-12-23T18:33:54.258Z,53.45
2022-12-23T18:36:25.318Z,46.50
2022-12-23T18:38:52.680Z,41.80
2022-12-23T18:41:19.560Z,37.45
2022-12-23T18:43:49.154Z,35.75
2022-12-23T18:46:15.877Z,48.50
2022-12-23T18:48:42.431Z,43.25
2022-12-23T18:51:16.635Z,32.97
2022-12-23T18:53:43.688Z,38.55
2022-12-23T18:56:12.941Z,33.60
2022-12-23T18:58:41.457Z,40.30
2022-12-23T19:01:12.251Z,35.03
2022-12-23T19:03:48.718Z,38.83
2022-12-23T19:06:15.873Z,38.10
2022-12-23T19:09:07.369Z,45.10
2022-12-23T19:11:32.031Z,45.45
2022-12-23T19:13:58.543Z,43.55
2022-12-23T19:16:25.515Z,43.50
2022-12-23T19:18:52.161Z,50.55
2022-12-23T19:21:22.356Z,44.38
2022-12-23T19:26:35.033Z,51.53
2022-12-23T19:29:18.000Z,46.28
2022-12-23T19:32:08.947Z,56.72
2022-12-23T19:35:04.340Z,43.63
2022-12-23T19:37:34.208Z,46.03
2022-12-23T19:40:08.166Z,43.33
2022-12-23T19:42:36.538Z,35.08
2022-12-23T19:45:02.995Z,39.05
2022-12-23T19:47:29.571Z,42.00
2022-12-23T19:49:56.089Z,41.78
2022-12-23T19:52:22.712Z,49.53
2022-12-23T19:54:52.073Z,45.13
2022-12-23T19:57:23.261Z,38.80
2022-12-23T20:00:23.467Z,35.15
2022-12-23T20:02:55.121Z,42.72
2022-12-23T20:05:25.151Z,38.03
2022-12-23T20:07:51.904Z,33.55
2022-12-23T20:10:18.533Z,28.80
2022-12-23T20:12:51.170Z,33.75
2022-12-23T20:15:17.900Z,39.93
2022-12-23T20:17:44.700Z,37.63
2022-12-23T20:20:13.418Z,47.88
2022-12-23T20:22:43.434Z,40.95
2022-12-23T20:25:10.212Z,46.55
2022-12-23T20:27:38.814Z,45.92
2022-12-23T20:30:08.409Z,45.05
2022-12-23T20:32:35.167Z,36.33
2022-12-23T20:35:01.961Z,53.08
2022-12-23T20:37:28.672Z,35.55
2022-12-23T20:43:03.236Z,32.67
2022-12-23T20:45:29.769Z,37.38
2022-12-23T20:47:56.593Z,35.85
2022-12-23T20:50:23.240Z,26.90
2022-12-23T20:52:57.408Z,35.85
2022-12-23T20:55:24.197Z,39.00
2022-12-23T20:57:50.959Z,38.92
2022-12-23T21:00:17.939Z,36.13
2022-12-23T21:02:44.879Z,38.17
2022-12-23T21:05:11.436Z,32.10
2022-12-23T21:07:38.436Z,31.50
2022-12-23T21:10:05.088Z,38.63
2022-12-23T21:12:31.910Z,33.25
2022-12-23T21:14:58.745Z,36.25
2022-12-23T21:17:26.036Z,36.22
2022-12-23T21:19:52.640Z,32.58
2022-12-23T21:22:19.233Z,38.28
2022-12-23T21:24:45.773Z,36.20
2022-12-23T21:27:15.338Z,45.13
2022-12-23T21:29:41.909Z,40.53
2022-12-23T21:32:08.637Z,34.13
2022-12-23T21:34:37.675Z,33.97
2022-12-23T21:37:04.306Z,37.58
2022-12-23T21:39:30.934Z,33.15
2022-12-23T21:41:57.616Z,34.60
2022-12-23T21:44:24.200Z,39.78
2022-12-23T21:46:51.145Z,34.75
2022-12-23T21:49:18.238Z,36.60
2022-12-23T21:51:44.759Z,37.85
2022-12-23T21:54:11.726Z,38.95
2022-12-23T21:56:38.701Z,40.25
2022-12-23T21:59:06.765Z,38.80
2022-12-23T22:01:33.698Z,40.80
2022-12-23T22:04:00.224Z,30.60
2022-12-23T22:06:26.726Z,36.53
2022-12-23T22:08:53.726Z,32.47
2022-12-23T22:11:22.007Z,35.00
2022-12-23T22:13:48.502Z,41.22
2022-12-23T22:16:19.879Z,36.50
2022-12-23T22:18:47.078Z,40.13
2022-12-23T22:21:15.110Z,39.47
2022-12-23T22:23:41.629Z,42.28
2022-12-23T22:26:08.645Z,35.53
2022-12-23T22:28:35.962Z,37.70
2022-12-23T22:31:15.525Z,36.92
2022-12-23T22:33:41.942Z,37.80
2022-12-23T22:36:10.603Z,36.42
2022-12-23T22:38:38.502Z,38.85
2022-12-23T22:41:05.311Z,47.45
2022-12-23T22:43:31.881Z,37.53
2022-12-23T22:45:59.645Z,39.58
2022-12-23T22:48:26.999Z,39.05
2022-12-23T22:51:01.076Z,45.45
2022-12-23T22:53:29.882Z,47.92
2022-12-23T22:55:57.603Z,49.65
2022-12-23T22:58:24.173Z,41.63
2022-12-23T23:00:50.792Z,44.78
2022-12-23T23:03:17.268Z,42.45
2022-12-23T23:05:43.838Z,36.38
2022-12-23T23:08:12.443Z,45.75
2022-12-23T23:10:38.969Z,43.97
2022-12-23T23:13:05.523Z,47.67
2022-12-23T23:15:32.004Z,43.97
2022-12-23T23:17:58.486Z,41.92
2022-12-23T23:20:25.021Z,40.03
2022-12-23T23:22:52.049Z,43.45
2022-12-23T23:25:18.522Z,45.17
2022-12-23T23:27:45.015Z,47.80
2022-12-23T23:30:11.668Z,47.03
2022-12-23T23:32:38.227Z,47.50
2022-12-23T23:35:10.503Z,46.05
2022-12-23T23:37:37.403Z,44.33
2022-12-23T23:40:04.195Z,43.50
2022-12-23T23:42:30.645Z,45.00
2022-12-23T23:44:57.090Z,50.78
2022-12-23T23:47:23.652Z,51.13
2022-12-23T23:49:50.128Z,46.55
2022-12-23T23:52:16.564Z,49.22
2022-12-23T23:54:43.861Z,43.90
2022-12-23T23:57:10.634Z,46.30
2022-12-23T23:59:37.081Z,36.97
